Time;durP1;ratioP1;P1;durP2;ratioP2;P2;SDS_P1;SDS_P2;PMS_P1;PMS_P2;Temp;Humidity;BMP_temperature;BMP_pressure;BME280_temperature;BME280_humidity;BME280_pressure;Samples;Min_cycle;Max_cycle;Signal;HPM_P1;HPM_P2
2022/05/18 00:01:08;;;;;;;5.30;4.73;;;;;;;15.07;100.00;96807.66;5071741;27;101784;-60
2022/05/18 00:03:38;;;;;;;5.43;4.83;;;;;;;14.84;100.00;96807.38;5053192;27;103567;-60
2022/05/18 00:06:06;;;;;;;5.33;4.83;;;;;;;14.46;100.00;96816.69;5071209;27;102557;-59
2022/05/18 00:08:36;;;;;;;5.77;4.67;;;;;;;14.26;100.00;96821.97;5071539;27;101892;-60
2022/05/18 00:11:05;;;;;;;5.20;4.70;;;;;;;14.28;100.00;96813.69;5071647;27;102318;-60
2022/05/18 00:13:32;;;;;;;5.60;4.67;;;;;;;14.31;100.00;96816.66;5052151;27;103789;-60
2022/05/18 00:15:59;;;;;;;5.33;4.93;;;;;;;13.93;100.00;96819.69;5071614;27;101834;-59
2022/05/18 00:18:28;;;;;;;5.13;4.73;;;;;;;13.99;100.00;96823.16;5071588;27;102914;-60
2022/05/18 00:20:55;;;;;;;5.03;4.70;;;;;;;14.16;100.00;96819.22;5073812;27;103165;-60
2022/05/18 00:23:23;;;;;;;5.60;5.17;;;;;;;14.36;100.00;96822.03;5071359;27;102311;-60
2022/05/18 00:25:50;;;;;;;5.90;5.30;;;;;;;14.55;100.00;96822.34;5070607;27;102778;-60
2022/05/18 00:28:17;;;;;;;6.63;5.57;;;;;;;14.48;100.00;96817.22;5071431;27;101848;-59
2022/05/18 00:30:45;;;;;;;5.13;4.67;;;;;;;14.58;100.00;96819.94;5071340;27;102770;-59
2022/05/18 00:33:12;;;;;;;6.23;5.57;;;;;;;14.25;100.00;96831.09;5070498;27;103114;-60
2022/05/18 00:35:42;;;;;;;5.37;4.90;;;;;;;14.18;100.00;96832.34;5069592;27;101860;-60
2022/05/18 00:38:10;;;;;;;5.20;4.80;;;;;;;14.05;100.00;96832.81;5071094;27;102288;-60
2022/05/18 00:40:39;;;;;;;5.77;4.60;;;;;;;14.33;100.00;96837.78;5070720;27;102890;-60
2022/05/18 00:43:06;;;;;;;5.30;4.80;;;;;;;14.58;100.00;96843.19;5074261;27;101863;-60
2022/05/18 00:45:33;;;;;;;7.13;4.90;;;;;;;14.96;100.00;96850.78;5070144;27;102707;-60
2022/05/18 00:48:00;;;;;;;6.47;5.87;;;;;;;14.98;100.00;96848.66;5052415;27;101986;-60
2022/05/18 00:50:33;;;;;;;6.93;5.70;;;;;;;15.09;100.00;96853.72;5071024;27;102390;-59
2022/05/18 00:53:05;;;;;;;6.23;5.57;;;;;;;15.06;100.00;96848.09;5051925;27;105861;-60
2022/05/18 00:55:36;;;;;;;6.47;5.70;;;;;;;15.03;100.00;96862.03;5071043;27;101732;-59
2022/05/18 00:58:08;;;;;;;6.63;5.93;;;;;;;14.94;100.00;96847.56;5052405;27;105194;-59
2022/05/18 01:00:38;;;;;;;5.93;5.43;;;;;;;14.81;100.00;96856.09;5070080;27;102240;-59
2022/05/18 01:03:11;;;;;;;8.07;5.30;;;;;;;14.94;100.00;96855.59;5070924;27;101769;-59
2022/05/18 01:05:40;;;;;;;5.80;5.30;;;;;;;14.92;100.00;96844.31;5073761;27;102256;-60
2022/05/18 01:08:12;;;;;;;6.17;5.67;;;;;;;14.77;100.00;96844.34;5070461;27;101885;-59
2022/05/18 01:10:39;;;;;;;5.87;5.37;;;;;;;14.65;100.00;96847.25;5070868;27;102909;-59
2022/05/18 01:13:06;;;;;;;5.63;5.13;;;;;;;14.73;100.00;96853.97;5068351;27;105769;-60
2022/05/18 01:15:33;;;;;;;6.93;5.80;;;;;;;14.70;100.00;96852.59;5070329;27;101982;-59
2022/05/18 01:18:01;;;;;;;6.23;5.73;;;;;;;14.16;100.00;96851.34;5069140;27;105078;-60
2022/05/18 01:20:34;;;;;;;5.97;5.37;;;;;;;14.25;100.00;96852.47;5069961;27;103473;-60
2022/05/18 01:23:16;;;;;;;6.10;5.50;;;;;;;14.30;100.00;96857.03;5070742;27;102009;-60
2022/05/18 01:25:56;;;;;;;5.57;5.07;;;;;;;14.56;100.00;96856.06;5073334;27;102453;-60
2022/05/18 01:28:31;;;;;;;5.80;5.30;;;;;;;14.72;100.00;96852.34;5070643;27;101704;-60
2022/05/18 01:30:58;;;;;;;6.47;5.77;;;;;;;14.52;100.00;96854.97;5069241;27;105229;-59
2022/05/18 01:33:26;;;;;;;6.53;5.90;;;;;;;14.56;100.00;96853.38;5069988;27;103061;-59
2022/05/18 01:35:54;;;;;;;6.10;5.50;;;;;;;14.62;100.00;96860.34;5072845;27;101881;-60
2022/05/18 01:38:21;;;;;;;5.77;5.27;;;;;;;14.43;100.00;96856.53;5056103;27;102557;-60
2022/05/18 01:40:56;;;;;;;5.37;4.93;;;;;;;14.04;100.00;96857.97;5073370;27;103066;-60
2022/05/18 01:43:27;;;;;;;5.23;4.73;;;;;;;14.22;100.00;96862.91;5072515;27;101808;-60
2022/05/18 01:45:56;;;;;;;5.70;5.20;;;;;;;14.37;100.00;96860.25;5074021;27;102849;-60
2022/05/18 01:48:25;;;;;;;5.77;5.20;;;;;;;14.14;100.00;96864.19;5076828;27;102830;-60
2022/05/18 01:50:53;;;;;;;7.33;5.60;;;;;;;14.48;100.00;96877.97;5055463;27;102557;-59
2022/05/18 01:53:20;;;;;;;6.83;6.30;;;;;;;14.05;100.00;96876.41;5071683;27;105406;-60
2022/05/18 01:55:48;;;;;;;7.10;5.57;;;;;;;14.22;100.00;96868.25;5055316;27;101949;-59
2022/05/18 01:58:16;;;;;;;6.60;5.70;;;;;;;14.39;100.00;96868.84;5073389;27;102777;-59
2022/05/18 02:00:46;;;;;;;6.67;6.13;;;;;;;14.26;100.00;96870.13;5073135;27;103106;-59
2022/05/18 02:03:14;;;;;;;6.80;6.20;;;;;;;14.05;100.00;96867.59;5073906;27;101679;-59
2022/05/18 02:05:42;;;;;;;6.07;5.47;;;;;;;14.26;100.00;96874.66;5073679;27;102302;-59
2022/05/18 02:08:10;;;;;;;7.83;7.10;;;;;;;14.21;100.00;96871.97;5072652;27;103184;-59
2022/05/18 02:10:37;;;;;;;6.90;5.53;;;;;;;14.20;100.00;96879.22;5076952;27;101848;-59
2022/05/18 02:13:05;;;;;;;5.50;5.03;;;;;;;14.36;100.00;96886.25;5054253;27;105432;-59
2022/05/18 02:15:31;;;;;;;5.17;4.77;;;;;;;14.38;100.00;96877.94;5072064;27;102032;-59
2022/05/18 02:18:00;;;;;;;5.70;5.03;;;;;;;14.34;100.00;96879.53;5073384;27;102385;-60
2022/05/18 02:20:27;;;;;;;5.50;5.00;;;;;;;14.37;100.00;96881.66;5072813;27;102993;-59
2022/05/18 02:22:54;;;;;;;5.70;5.07;;;;;;;14.29;100.00;96879.50;5072935;27;101766;-60
2022/05/18 02:25:22;;;;;;;6.03;5.50;;;;;;;14.04;100.00;96882.03;5072872;27;102414;-59
2022/05/18 02:27:50;;;;;;;5.67;4.73;;;;;;;14.02;100.00;96879.59;5072405;27;102743;-59
2022/05/18 02:30:17;;;;;;;4.93;4.53;;;;;;;13.98;100.00;96889.22;5071950;27;101995;-60
2022/05/18 02:32:44;;;;;;;5.63;5.13;;;;;;;13.77;100.00;96884.81;5057580;27;105192;-60
2022/05/18 02:35:13;;;;;;;6.33;5.10;;;;;;;13.24;100.00;96882.28;5072821;27;101859;-59
2022/05/18 02:37:40;;;;;;;6.50;4.97;;;;;;;13.81;100.00;96885.13;5072937;27;102557;-59
2022/05/18 02:40:09;;;;;;;4.97;4.60;;;;;;;13.79;100.00;96889.91;5071034;27;104149;-59
2022/05/18 02:42:36;;;;;;;5.40;5.00;;;;;;;13.79;100.00;96880.00;5072916;27;101920;-59
2022/05/18 02:45:06;;;;;;;5.00;4.60;;;;;;;13.87;100.00;96881.41;5072767;27;103064;-59
2022/05/18 02:47:33;;;;;;;6.63;6.07;;;;;;;13.88;100.00;96878.47;5071324;27;103077;-59
2022/05/18 02:50:00;;;;;;;5.30;4.90;;;;;;;13.63;100.00;96880.97;5072729;27;101928;-59
2022/05/18 02:52:29;;;;;;;6.13;5.60;;;;;;;13.47;100.00;96886.50;5072632;27;102401;-59
2022/05/18 02:57:40;;;;;;;6.00;5.37;;;;;;;13.75;100.00;96894.16;5053654;27;105528;-59
2022/05/18 03:00:09;;;;;;;7.23;6.60;;;;;;;13.55;100.00;96894.00;5068975;27;103282;-59
2022/05/18 03:02:36;;;;;;;7.33;4.93;;;;;;;13.87;100.00;96905.47;5072385;27;101863;-59
2022/05/18 03:05:03;;;;;;;7.53;5.80;;;;;;;13.99;100.00;96906.06;5053834;27;102419;-59
2022/05/18 03:07:32;;;;;;;6.03;5.43;;;;;;;14.09;100.00;96900.78;5053333;27;104220;-59
2022/05/18 03:09:59;;;;;;;6.20;5.60;;;;;;;14.08;100.00;96909.88;5053857;27;102033;-59
2022/05/18 03:15:49;;;;;;;7.93;6.90;;;;;;;13.73;100.00;96901.66;5072205;27;103078;-60
2022/05/18 03:18:16;;;;;;;8.00;6.43;;;;;;;13.43;100.00;96912.09;5056980;27;102216;-59
2022/05/18 03:23:41;;;;;;;5.80;5.27;;;;;;;13.09;100.00;96938.22;5071828;27;103357;-59
2022/05/18 03:26:10;;;;;;;6.07;5.47;;;;;;;13.57;100.00;96942.69;5072623;27;101677;-59
2022/05/18 03:28:38;;;;;;;6.43;5.83;;;;;;;13.69;100.00;96933.41;5059717;27;105576;-59
2022/05/18 03:31:07;;;;;;;6.83;6.33;;;;;;;13.72;100.00;96951.63;5053706;27;101838;-59
2022/05/18 03:33:35;;;;;;;6.00;5.57;;;;;;;13.78;100.00;96941.75;5052365;27;102870;-59
2022/05/18 03:36:02;;;;;;;6.13;5.53;;;;;;;13.63;100.00;96942.44;5042655;27;105599;-59
2022/05/18 03:38:30;;;;;;;6.73;5.73;;;;;;;13.54;100.00;96946.66;5074870;27;101940;-59
2022/05/18 03:40:58;;;;;;;6.13;5.53;;;;;;;13.64;100.00;96951.28;5052254;27;105803;-59
2022/05/18 03:43:25;;;;;;;6.20;5.57;;;;;;;13.68;100.00;96947.03;5071505;27;102171;-59
2022/05/18 03:46:07;;;;;;;6.00;5.30;;;;;;;13.69;100.00;96945.97;5072219;27;103036;-60
2022/05/18 03:48:34;;;;;;;6.10;5.60;;;;;;;13.49;100.00;96948.47;5052899;27;105675;-59
2022/05/18 03:51:04;;;;;;;6.03;5.53;;;;;;;13.56;100.00;96949.06;5071633;27;102020;-60
2022/05/18 03:53:31;;;;;;;6.20;5.60;;;;;;;13.53;100.00;96961.06;5071596;27;102592;-59
2022/05/18 03:56:01;;;;;;;6.43;5.93;;;;;;;13.26;100.00;96949.63;5052762;27;103692;-60
2022/05/18 03:58:28;;;;;;;6.47;5.47;;;;;;;13.49;100.00;96956.50;5071258;27;101779;-59
2022/05/18 04:01:00;;;;;;;6.77;6.10;;;;;;;13.54;100.00;96961.88;5055802;27;105242;-59
2022/05/18 04:03:29;;;;;;;6.97;5.93;;;;;;;13.60;100.00;96966.22;5071891;27;102053;-59
2022/05/18 04:05:56;;;;;;;7.33;5.70;;;;;;;13.48;100.00;96961.06;5071375;27;102973;-59
2022/05/18 04:08:23;;;;;;;6.03;5.40;;;;;;;13.54;100.00;96961.88;5052637;27;104123;-59
2022/05/18 04:10:50;;;;;;;6.20;5.67;;;;;;;13.56;100.00;96960.56;5071448;27;101875;-59
2022/05/18 04:13:24;;;;;;;6.67;6.07;;;;;;;13.60;100.00;96960.88;5052777;27;105541;-59
2022/05/18 04:15:52;;;;;;;7.23;6.53;;;;;;;13.62;100.00;96964.91;5070904;27;102835;-60
2022/05/18 04:18:19;;;;;;;6.90;6.20;;;;;;;13.74;100.00;96975.41;5071634;27;101717;-59
2022/05/18 04:20:46;;;;;;;7.10;5.83;;;;;;;13.99;100.00;96970.25;5071380;27;102312;-59
2022/05/18 04:23:14;;;;;;;6.13;5.50;;;;;;;14.14;100.00;96970.34;5074094;27;103015;-59
2022/05/18 04:25:42;;;;;;;6.07;5.47;;;;;;;14.24;100.00;96973.13;5070955;27;102234;-60
2022/05/18 04:28:13;;;;;;;5.63;5.13;;;;;;;14.57;100.00;96967.41;5070485;27;102790;-60
2022/05/18 04:30:44;;;;;;;7.10;6.50;;;;;;;14.53;100.00;96977.00;5071501;27;102119;-59
2022/05/18 04:33:11;;;;;;;6.73;6.13;;;;;;;14.68;100.00;96971.72;5071302;27;102381;-59
2022/05/18 04:35:38;;;;;;;8.17;5.80;;;;;;;14.99;100.00;96976.13;5070246;27;102829;-59
2022/05/18 04:38:06;;;;;;;7.67;6.80;;;;;;;14.92;100.00;96976.38;5052851;27;102007;-59
2022/05/18 04:40:34;;;;;;;7.53;6.93;;;;;;;14.81;100.00;96976.59;5053103;27;103486;-59
2022/05/18 04:43:01;;;;;;;7.23;6.53;;;;;;;14.73;100.00;96977.94;5069085;27;102988;-59
2022/05/18 04:45:28;;;;;;;7.37;6.60;;;;;;;14.85;100.00;96983.84;5074337;27;101826;-59
2022/05/18 04:47:57;;;;;;;8.20;7.40;;;;;;;14.80;100.00;96983.84;5070418;27;102675;-59
2022/05/18 04:50:23;;;;;;;9.57;8.33;;;;;;;14.45;100.00;96990.91;5071025;27;101935;-59
2022/05/18 04:52:50;;;;;;;8.40;7.60;;;;;;;14.66;100.00;96989.94;5071059;27;102334;-59
2022/05/18 04:55:18;;;;;;;9.97;8.20;;;;;;;14.86;100.00;96990.00;5070297;27;102922;-59
2022/05/18 04:57:45;;;;;;;9.80;8.00;;;;;;;15.01;100.00;96993.56;5070616;27;102101;-61
2022/05/18 05:00:15;;;;;;;8.60;7.80;;;;;;;15.10;100.00;96993.84;5071233;27;102070;-61
2022/05/18 05:02:42;;;;;;;8.53;7.73;;;;;;;15.21;100.00;96998.16;5070039;27;102511;-61
2022/05/18 05:05:14;;;;;;;8.43;7.57;;;;;;;15.39;100.00;97003.03;5052335;27;101948;-60
2022/05/18 05:07:41;;;;;;;10.67;7.63;;;;;;;15.26;100.00;97003.53;5073496;27;102285;-60
2022/05/18 05:10:09;;;;;;;8.53;6.90;;;;;;;15.42;100.00;96999.84;5053993;27;102044;-61
2022/05/18 05:12:36;;;;;;;7.67;6.87;;;;;;;15.32;100.00;97007.84;5074477;27;102280;-61
2022/05/18 05:15:04;;;;;;;7.70;6.70;;;;;;;15.68;100.00;97006.81;5055346;27;106001;-61
2022/05/18 05:17:31;;;;;;;8.07;7.23;;;;;;;15.81;100.00;97017.03;5073646;27;101905;-61
2022/05/18 05:19:59;;;;;;;7.27;6.33;;;;;;;16.37;100.00;97011.38;5074296;27;102703;-61
2022/05/18 05:22:27;;;;;;;8.67;7.50;;;;;;;16.23;100.00;97013.00;5073412;27;102621;-61
2022/05/18 05:24:55;;;;;;;8.97;7.20;;;;;;;16.07;100.00;97015.97;5074375;27;102531;-61
2022/05/18 05:27:22;;;;;;;7.10;6.40;;;;;;;16.14;100.00;97025.34;5074138;27;102489;-61
2022/05/18 05:29:49;;;;;;;7.83;7.03;;;;;;;15.97;100.00;97019.44;5076681;27;102168;-61
2022/05/18 05:32:16;;;;;;;8.40;7.17;;;;;;;15.86;100.00;97019.72;5074103;27;102589;-61
2022/05/18 05:34:43;;;;;;;8.00;7.20;;;;;;;15.80;100.00;97028.84;5073182;27;102775;-61
2022/05/18 05:37:10;;;;;;;8.37;7.57;;;;;;;15.87;100.00;97034.75;5074117;27;101827;-60
2022/05/18 05:39:38;;;;;;;7.60;6.80;;;;;;;16.02;100.00;97024.81;5073926;27;101717;-61
2022/05/18 05:42:06;;;;;;;7.80;7.00;;;;;;;16.01;100.00;97027.75;5072609;27;103609;-61
2022/05/18 05:44:33;;;;;;;7.83;6.33;;;;;;;16.16;100.00;97031.25;5055403;27;102005;-61
2022/05/18 05:47:03;;;;;;;7.57;6.87;;;;;;;16.19;100.00;97029.91;5073932;27;102308;-61
2022/05/18 05:49:29;;;;;;;7.67;6.97;;;;;;;16.21;100.00;97035.81;5076340;27;102693;-61
2022/05/18 05:51:56;;;;;;;12.70;7.40;;;;;;;16.16;100.00;97030.44;5073776;27;102308;-61
2022/05/18 05:54:24;;;;;;;8.07;7.13;;;;;;;16.50;100.00;97037.69;5073139;27;102681;-61
2022/05/18 05:56:52;;;;;;;8.60;7.80;;;;;;;16.62;100.00;97032.81;5073161;27;101847;-61
2022/05/18 05:59:19;;;;;;;7.97;6.50;;;;;;;16.70;100.00;97037.63;5073576;27;102376;-61
2022/05/18 06:01:47;;;;;;;7.27;6.57;;;;;;;16.85;100.00;97042.16;5054579;27;105737;-61
2022/05/18 06:04:14;;;;;;;7.03;6.30;;;;;;;16.90;100.00;97037.56;5071938;27;102101;-61
2022/05/18 06:06:41;;;;;;;7.07;6.40;;;;;;;16.95;100.00;97036.75;5055106;27;104955;-61
2022/05/18 06:09:08;;;;;;;8.07;6.87;;;;;;;17.05;100.00;97047.47;5054460;27;105314;-61
2022/05/18 06:11:36;;;;;;;7.47;6.77;;;;;;;17.18;100.00;97041.47;5075616;27;101867;-61
2022/05/18 06:14:05;;;;;;;6.93;6.23;;;;;;;17.36;100.00;97044.34;5054333;27;105571;-61
2022/05/18 06:16:32;;;;;;;6.67;5.97;;;;;;;17.47;100.00;97051.31;5073226;27;102189;-61
2022/05/18 06:19:01;;;;;;;7.43;5.93;;;;;;;17.41;100.00;97054.31;5054850;27;105426;-61
2022/05/18 06:21:28;;;;;;;7.17;6.40;;;;;;;17.63;100.00;97052.03;5053888;27;102707;-61
2022/05/18 06:23:55;;;;;;;6.93;6.23;;;;;;;17.76;100.00;97052.19;5073006;27;101847;-61
2022/05/18 06:26:22;;;;;;;6.20;5.70;;;;;;;17.96;100.00;97062.00;5054838;27;105024;-61
2022/05/18 06:28:49;;;;;;;9.40;6.23;;;;;;;17.95;100.00;97061.22;5072404;27;103499;-60
2022/05/18 06:31:18;;;;;;;7.20;6.50;;;;;;;18.11;100.00;97060.03;5073091;27;101874;-61
2022/05/18 06:33:45;;;;;;;7.23;6.50;;;;;;;17.97;100.00;97061.75;5057958;27;101872;-61
2022/05/18 06:36:12;;;;;;;7.03;6.20;;;;;;;18.09;100.00;97061.41;5073005;27;101886;-61
2022/05/18 06:38:40;;;;;;;7.67;6.53;;;;;;;18.66;100.00;97056.88;5073115;27;102629;-60
2022/05/18 06:41:25;;;;;;;6.43;5.53;;;;;;;18.75;100.00;97057.03;5072276;27;101848;-61
2022/05/18 06:43:54;;;;;;;6.90;6.30;;;;;;;18.66;100.00;97066.81;5073026;27;101954;-61
2022/05/18 06:46:24;;;;;;;6.97;6.30;;;;;;;18.71;100.00;97064.09;5072604;27;102396;-61
2022/05/18 06:48:51;;;;;;;6.90;5.47;;;;;;;19.19;100.00;97060.31;5053840;27;106665;-61
2022/05/18 06:51:22;;;;;;;6.83;6.03;;;;;;;19.33;100.00;97053.94;5054264;27;101894;-61
2022/05/18 06:53:51;;;;;;;7.13;5.97;;;;;;;19.42;100.00;97060.31;5073081;27;102338;-61
2022/05/18 06:56:19;;;;;;;8.00;5.47;;;;;;;19.67;100.00;97056.47;5056783;27;105348;-61
2022/05/18 06:58:47;;;;;;;6.67;5.87;;;;;;;19.82;100.00;97064.34;5054217;27;105635;-61
2022/05/18 07:01:14;;;;;;;5.30;4.80;;;;;;;20.28;100.00;97059.88;5036864;27;105741;-61
2022/05/18 07:03:43;;;;;;;5.43;4.90;;;;;;;20.21;100.00;97056.75;5054087;27;101918;-61
2022/05/18 07:06:11;;;;;;;6.50;5.30;;;;;;;20.31;100.00;97061.97;5053858;27;103609;-61
2022/05/18 07:08:39;;;;;;;5.97;5.37;;;;;;;20.38;100.00;97059.72;5071980;27;102519;-61
2022/05/18 07:11:07;;;;;;;5.33;4.93;;;;;;;20.33;100.00;97059.78;5072877;27;101846;-61
2022/05/18 07:13:35;;;;;;;6.03;5.43;;;;;;;20.45;100.00;97057.41;5071183;27;103490;-61
2022/05/18 07:16:03;;;;;;;5.03;4.57;;;;;;;20.48;100.00;97054.16;5071403;27;102534;-61
2022/05/18 07:18:32;;;;;;;5.90;4.77;;;;;;;20.39;100.00;97050.50;5076159;27;101803;-61
2022/05/18 07:21:02;;;;;;;5.90;5.40;;;;;;;20.55;100.00;97057.25;5071470;27;102587;-61
2022/05/18 07:23:30;;;;;;;5.07;4.57;;;;;;;20.39;100.00;97053.22;5072782;27;101761;-61
2022/05/18 07:25:58;;;;;;;5.13;4.63;;;;;;;20.60;100.00;97054.47;5071724;27;102745;-61
2022/05/18 07:28:26;;;;;;;8.03;5.43;;;;;;;20.87;100.00;97054.50;5071228;27;102736;-61
2022/05/18 07:30:54;;;;;;;5.80;5.30;;;;;;;21.06;100.00;97055.22;5072028;27;101889;-61
2022/05/18 07:33:22;;;;;;;6.57;4.50;;;;;;;21.55;100.00;97052.59;5071602;27;102835;-61
2022/05/18 07:35:50;;;;;;;5.57;4.77;;;;;;;21.40;100.00;97055.59;5071033;27;102514;-61
2022/05/18 07:38:19;;;;;;;6.23;5.03;;;;;;;21.35;100.00;97053.00;5075097;27;101932;-61
2022/05/18 07:40:48;;;;;;;5.73;5.30;;;;;;;21.36;100.00;97047.28;5071142;27;101734;-61
2022/05/18 07:43:17;;;;;;;5.40;4.90;;;;;;;21.57;100.00;97053.09;5071650;27;101761;-61
2022/05/18 07:45:44;;;;;;;6.70;5.00;;;;;;;21.83;100.00;97046.84;5071773;27;102215;-61
2022/05/18 07:48:11;;;;;;;6.17;4.87;;;;;;;21.74;100.00;97047.88;5071644;27;102530;-61
2022/05/18 07:50:38;;;;;;;5.00;4.50;;;;;;;21.92;100.00;97050.44;5071566;27;102044;-61
2022/05/18 07:53:06;;;;;;;5.33;4.87;;;;;;;22.10;100.00;97045.94;5071689;27;102397;-61
2022/05/18 07:55:34;;;;;;;4.90;4.50;;;;;;;22.16;100.00;97044.69;5052640;27;105395;-61
2022/05/18 07:58:04;;;;;;;5.30;4.50;;;;;;;22.43;100.00;97042.66;5071492;27;101986;-61
2022/05/18 08:00:32;;;;;;;5.17;4.40;;;;;;;22.44;100.00;97046.19;5074676;27;102406;-61
2022/05/18 08:02:59;;;;;;;6.83;4.80;;;;;;;22.32;100.00;97038.63;5071810;27;101861;-61
2022/05/18 08:05:28;;;;;;;5.43;4.73;;;;;;;22.53;100.00;97041.63;5071696;27;102555;-61
2022/05/18 08:07:55;;;;;;;4.60;4.20;;;;;;;22.77;100.00;97039.38;5070898;27;103234;-61
2022/05/18 08:15:53;;;;;;;4.73;4.00;;;;;;;22.82;100.00;97031.09;5070698;27;102567;-61
2022/05/18 08:18:21;;;;;;;4.50;4.00;;;;;;;23.17;100.00;97032.84;5053063;27;101812;-61
2022/05/18 08:20:49;;;;;;;5.10;4.60;;;;;;;23.23;100.00;97031.59;5071360;27;102324;-61
2022/05/18 08:23:17;;;;;;;4.40;4.00;;;;;;;23.35;100.00;97031.78;5073983;27;102662;-61
2022/05/18 08:25:46;;;;;;;4.80;4.40;;;;;;;23.42;100.00;97023.97;5071076;27;102538;-61
2022/05/18 08:28:15;;;;;;;5.10;4.40;;;;;;;23.49;100.00;97032.47;5070412;27;102588;-61
2022/05/18 08:30:44;;;;;;;4.43;3.93;;;;;;;23.79;100.00;97029.63;5052809;27;102084;-61
2022/05/18 08:33:11;;;;;;;5.33;3.70;;;;;;;24.11;100.00;97025.66;5053143;27;103741;-61
2022/05/18 08:35:39;;;;;;;4.60;4.20;;;;;;;24.07;100.00;97041.00;5051946;27;104090;-61
2022/05/18 08:38:07;;;;;;;6.00;3.83;;;;;;;24.12;100.00;97035.41;5071148;27;101817;-61
2022/05/18 08:40:40;;;;;;;4.17;3.87;;;;;;;24.23;100.00;97028.53;5069791;27;105131;-61
2022/05/18 08:43:10;;;;;;;3.90;3.50;;;;;;;24.30;100.00;97032.34;5069041;27;105704;-61
2022/05/18 08:45:46;;;;;;;3.50;3.20;;;;;;;24.44;100.00;97043.06;5073054;27;101825;-61
2022/05/18 08:48:26;;;;;;;5.23;3.63;;;;;;;24.67;100.00;97030.88;5070610;27;102569;-61
2022/05/18 08:51:02;;;;;;;3.87;3.10;;;;;;;24.82;100.00;97031.16;5071149;27;101946;-61
2022/05/18 08:53:41;;;;;;;3.80;3.50;;;;;;;24.76;100.00;97034.38;5069745;27;105899;-61
2022/05/18 08:56:14;;;;;;;3.60;3.17;;;;;;;24.58;100.00;97025.44;5070296;27;102586;-61
2022/05/18 08:58:45;;;;;;;3.00;2.80;;;;;;;25.03;99.04;97037.50;5070803;27;101748;-61
2022/05/18 09:01:16;;;;;;;3.00;2.70;;;;;;;24.72;93.58;97028.78;5071083;27;102379;-60
2022/05/18 09:03:45;;;;;;;3.53;2.80;;;;;;;24.98;92.19;97026.78;5068912;27;105292;-60
2022/05/18 09:06:25;;;;;;;3.30;2.57;;;;;;;25.30;97.38;97022.66;5070793;27;101864;-60
2022/05/18 09:11:40;;;;;;;4.63;2.83;;;;;;;25.78;86.45;97020.25;5070598;27;101699;-60
2022/05/18 09:14:11;;;;;;;4.50;2.93;;;;;;;25.61;94.57;97020.38;5070591;27;102340;-61
2022/05/18 09:16:44;;;;;;;2.53;2.33;;;;;;;25.70;84.10;97019.19;5070179;27;102477;-60
2022/05/18 09:19:19;;;;;;;4.23;3.07;;;;;;;25.91;88.38;97021.94;5052173;27;101829;-60
2022/05/18 09:21:56;;;;;;;3.27;2.97;;;;;;;25.96;85.00;97019.84;5070677;27;102385;-60
2022/05/18 09:24:35;;;;;;;4.63;3.20;;;;;;;25.88;87.13;97015.19;5051142;27;105546;-60
2022/05/18 09:27:25;;;;;;;4.67;2.83;;;;;;;25.98;75.02;97017.56;5052102;27;102051;-60
2022/05/18 09:30:02;;;;;;;3.47;2.80;;;;;;;26.12;73.91;97012.63;5067240;27;102636;-60
2022/05/18 09:35:40;;;;;;;3.37;2.67;;;;;;;26.44;77.36;97017.31;5050684;27;101589;-61
2022/05/18 09:38:11;;;;;;;3.10;2.70;;;;;;;26.52;70.92;97010.16;5046730;27;102661;-60
2022/05/18 09:40:44;;;;;;;3.13;2.40;;;;;;;26.70;74.12;97015.13;5047389;27;101906;-60
2022/05/18 09:43:15;;;;;;;2.60;2.40;;;;;;;26.88;69.07;97013.00;5045647;27;103962;-60
2022/05/18 09:45:47;;;;;;;2.73;2.50;;;;;;;26.66;62.33;97010.69;5046752;27;102545;-60
2022/05/18 09:48:23;;;;;;;2.30;2.20;;;;;;;26.79;58.98;97009.56;5046873;27;101780;-60
2022/05/18 09:50:52;;;;;;;2.70;2.30;;;;;;;26.50;59.23;97005.06;5047156;27;102945;-60
2022/05/18 09:53:20;;;;;;;3.80;2.10;;;;;;;26.39;60.27;97008.53;5046409;27;102650;-60
2022/05/18 09:55:50;;;;;;;3.00;2.50;;;;;;;26.83;63.93;97005.03;5050282;27;101891;-60
2022/05/18 09:58:22;;;;;;;2.70;2.17;;;;;;;27.22;63.27;97005.19;5045808;27;102522;-60
2022/05/18 10:07:26;;;;;;;3.60;2.40;;;;;;;26.95;67.70;96999.56;5046934;27;101818;-61
2022/05/18 10:09:27;;;;;;;2.10;1.90;;;;;;;27.60;55.14;97004.81;5046711;27;101790;-60
2022/05/18 10:11:53;;;;;;;2.70;1.93;;;;;;;27.78;52.31;97003.44;5046372;27;102899;-60
2022/05/18 10:14:31;;;;;;;3.63;1.90;;;;;;;27.63;54.03;96994.00;5046059;27;102646;-60
2022/05/18 10:17:05;;;;;;;2.27;2.07;;;;;;;27.95;54.28;96994.97;5046713;27;101701;-60
2022/05/18 10:19:36;;;;;;;4.13;2.20;;;;;;;27.53;55.71;97004.59;5049611;27;102333;-60
2022/05/18 10:22:07;;;;;;;2.10;2.00;;;;;;;27.52;53.48;97000.28;5046795;27;101697;-60
2022/05/18 10:24:39;;;;;;;2.60;2.20;;;;;;;27.33;45.82;96989.13;5046433;27;102544;-60
2022/05/18 10:27:11;;;;;;;2.43;2.17;;;;;;;27.80;50.92;96991.00;5045883;27;102870;-60
2022/05/18 10:29:38;;;;;;;1.80;1.70;;;;;;;28.12;46.75;96979.06;5046600;27;102264;-60
2022/05/18 10:32:09;;;;;;;2.23;1.90;;;;;;;28.16;48.49;96981.91;5046516;27;102935;-60
2022/05/18 10:34:44;;;;;;;2.67;1.80;;;;;;;27.42;42.46;96987.91;5044740;27;105068;-61
2022/05/18 10:37:14;;;;;;;1.90;1.70;;;;;;;27.51;45.42;96983.09;5046380;27;101748;-60
2022/05/18 10:39:44;;;;;;;2.67;1.80;;;;;;;28.29;44.54;96980.72;5046362;27;102228;-61
2022/05/18 10:42:23;;;;;;;3.37;1.90;;;;;;;28.25;47.38;96977.88;5047650;27;105317;-61
2022/05/18 10:44:51;;;;;;;1.80;1.70;;;;;;;28.05;50.33;96976.13;5043503;27;102221;-60
2022/05/18 10:47:26;;;;;;;1.60;1.50;;;;;;;28.16;43.83;96979.97;5030240;28;104248;-61
2022/05/18 10:50:09;;;;;;;2.77;1.50;;;;;;;27.24;37.89;96969.34;5032434;28;101888;-61
2022/05/18 10:52:38;;;;;;;2.77;1.60;;;;;;;26.77;40.06;96976.34;5032700;28;102344;-60
2022/05/18 10:55:15;;;;;;;2.20;1.70;;;;;;;26.79;43.68;96971.34;5031638;27;102704;-60
2022/05/18 10:57:55;;;;;;;1.63;1.53;;;;;;;27.66;45.48;96967.91;5032369;27;102008;-60
2022/05/18 11:00:25;;;;;;;1.70;1.60;;;;;;;27.15;42.76;96966.72;5032144;28;104206;-60
2022/05/18 11:02:59;;;;;;;1.77;1.50;;;;;;;26.99;41.54;96965.81;5032117;27;102797;-61
2022/05/18 11:05:36;;;;;;;2.47;1.97;;;;;;;27.44;47.57;96973.88;5034317;28;101828;-61
2022/05/18 11:08:11;;;;;;;3.97;2.50;;;;;;;27.69;45.28;96961.75;5029926;28;105311;-61
2022/05/18 11:10:48;;;;;;;1.97;1.77;;;;;;;28.19;45.71;96970.25;5030807;28;101822;-60
2022/05/18 11:13:22;;;;;;;2.40;1.73;;;;;;;28.88;43.85;96967.84;5030786;28;105098;-60
2022/05/18 11:16:01;;;;;;;3.53;1.50;;;;;;;28.89;39.93;96963.94;5029998;28;105702;-60
2022/05/18 11:18:39;;;;;;;2.43;1.60;;;;;;;28.85;40.66;96966.59;5030751;27;101840;-60
2022/05/18 11:21:13;;;;;;;2.65;2.10;;;;;;;28.50;42.15;96967.63;5064394;27;105048;-60
2022/05/18 11:23:50;;;;;;;1.57;1.30;;;;;;;28.92;37.90;96965.97;5031503;27;102555;-60
2022/05/18 11:26:27;;;;;;;1.95;1.60;;;;;;;28.99;36.92;96963.44;5032118;27;101659;-60
2022/05/18 11:29:02;;;;;;;1.97;1.60;;;;;;;29.47;38.60;96968.50;5033247;28;103981;-60
2022/05/18 11:31:46;;;;;;;2.08;1.92;;;;;;;29.37;40.59;96958.88;5030478;28;101869;-61
2022/05/18 11:34:24;;;;;;;2.20;2.00;;;;;;;29.71;40.90;96962.81;5029923;28;105773;-61
2022/05/18 11:37:01;;;;;;;2.42;2.05;;;;;;;29.50;40.12;96956.81;5031463;28;101689;-61
2022/05/18 11:39:38;;;;;;;2.30;1.67;;;;;;;29.28;46.13;96955.56;5030316;28;101936;-60
2022/05/18 11:42:21;;;;;;;2.33;1.80;;;;;;;29.48;41.06;96953.66;5064366;27;104781;-60
2022/05/18 11:45:02;;;;;;;3.50;1.90;;;;;;;29.57;44.33;96957.00;5029408;28;103873;-60
2022/05/18 11:47:42;;;;;;;2.05;1.83;;;;;;;29.86;42.80;96949.03;5030381;28;101897;-60
2022/05/18 11:50:23;;;;;;;2.15;1.90;;;;;;;29.76;40.78;96952.34;5030062;28;105838;-61
2022/05/18 11:53:04;;;;;;;1.63;1.52;;;;;;;29.81;39.44;96943.81;5032802;27;101796;-61
2022/05/18 11:55:42;;;;;;;1.80;1.70;;;;;;;30.28;38.08;96947.16;5030029;28;103497;-60
2022/05/18 11:58:25;;;;;;;1.88;1.77;;;;;;;30.06;40.00;96947.06;5028269;27;105218;-60